Time;durP1;ratioP1;P1;durP2;ratioP2;P2;SDS_P1;SDS_P2;PMS_P1;PMS_P2;Temp;Humidity;BMP_temperature;BMP_pressure;BME280_temperature;BME280_humidity;BME280_pressure;Samples;Min_cycle;Max_cycle;Signal;HPM_P1;HPM_P2
2021/01/26 00:01:04;;;;;;;32.80;19.07;;;;;;;-0.98;83.20;100075.41;5022879;28;20187;-84
2021/01/26 00:03:29;;;;;;;36.67;18.67;;;;;;;-1.03;83.44;100079.00;5021570;28;20216;-84
2021/01/26 00:05:54;;;;;;;33.33;19.10;;;;;;;-1.06;83.56;100068.56;5006828;28;20208;-84
2021/01/26 00:08:20;;;;;;;33.90;19.70;;;;;;;-1.11;83.64;100079.13;5006740;28;20514;-84
2021/01/26 00:10:46;;;;;;;31.87;17.70;;;;;;;-1.15;83.76;100076.56;5024616;28;20181;-84
2021/01/26 00:13:12;;;;;;;31.03;17.23;;;;;;;-1.13;83.48;100080.03;5008768;28;20169;-83
2021/01/26 00:15:37;;;;;;;30.80;17.77;;;;;;;-1.14;83.86;100079.16;5010382;28;20200;-84
2021/01/26 00:18:04;;;;;;;36.17;19.10;;;;;;;-1.11;83.53;100086.13;5029028;28;20169;-84
2021/01/26 00:20:29;;;;;;;37.47;20.20;;;;;;;-1.14;84.10;100088.75;5025871;28;20207;-84
2021/01/26 00:22:55;;;;;;;37.43;20.17;;;;;;;-1.14;84.04;100089.63;5023898;28;20181;-84
2021/01/26 00:25:35;;;;;;;38.43;21.10;;;;;;;-1.12;83.94;100092.22;5036449;28;20685;-84
2021/01/26 00:28:01;;;;;;;32.17;19.00;;;;;;;-1.08;83.97;100094.78;5003454;28;20192;-85
2021/01/26 00:30:31;;;;;;;39.10;20.07;;;;;;;-1.05;83.78;100094.72;5002634;28;20177;-84
2021/01/26 00:33:00;;;;;;;37.87;19.80;;;;;;;-1.01;83.58;100093.78;5002485;28;20199;-85
2021/01/26 00:35:29;;;;;;;38.33;21.23;;;;;;;-0.99;83.68;100099.00;5019456;28;20200;-85
2021/01/26 00:37:54;;;;;;;35.43;20.77;;;;;;;-1.00;83.33;100092.91;5019463;28;20585;-84
2021/01/26 00:40:19;;;;;;;36.67;20.87;;;;;;;-0.99;83.38;100099.00;5002517;28;20173;-84
2021/01/26 00:42:45;;;;;;;37.67;21.40;;;;;;;-0.98;83.20;100098.09;5035703;28;20174;-84
2021/01/26 00:45:11;;;;;;;39.70;21.97;;;;;;;-0.98;83.74;100101.59;5002262;28;20216;-83
2021/01/26 00:47:37;;;;;;;38.73;21.93;;;;;;;-0.97;83.27;100094.59;5035191;28;20680;-83
2021/01/26 00:50:06;;;;;;;38.53;21.27;;;;;;;-0.98;83.17;100093.72;5019710;28;20187;-83
2021/01/26 00:52:32;;;;;;;44.53;22.37;;;;;;;-0.98;83.19;100100.72;5002864;28;20184;-83
2021/01/26 00:54:57;;;;;;;42.13;21.43;;;;;;;-0.96;83.40;100098.94;5018523;28;20189;-82
2021/01/26 00:57:22;;;;;;;42.23;23.63;;;;;;;-0.95;83.61;100105.91;5019108;28;20196;-82
2021/01/26 00:59:48;;;;;;;46.37;23.43;;;;;;;-0.92;83.19;100105.84;5036266;28;20637;-83
2021/01/26 01:02:14;;;;;;;41.57;21.47;;;;;;;-0.91;83.06;100099.72;5020603;28;20264;-82
2021/01/26 01:04:40;;;;;;;40.03;21.93;;;;;;;-0.91;83.03;100099.72;5003457;28;20258;-82
2021/01/26 01:07:06;;;;;;;41.53;22.90;;;;;;;-0.90;82.73;100097.97;5017762;28;20184;-82
2021/01/26 01:09:31;;;;;;;40.17;22.97;;;;;;;-0.90;82.70;100103.19;5035316;28;20204;-82
2021/01/26 01:11:56;;;;;;;37.13;21.70;;;;;;;-0.89;82.68;100103.19;5020659;28;20187;-82
2021/01/26 01:14:23;;;;;;;39.90;22.40;;;;;;;-0.89;82.75;100099.69;5002388;28;20184;-82
2021/01/26 01:16:48;;;;;;;40.70;22.77;;;;;;;-0.90;82.58;100109.31;5048028;28;20176;-82
2021/01/26 01:19:13;;;;;;;33.83;19.80;;;;;;;-0.89;82.72;100104.94;5026383;28;20192;-84
2021/01/26 01:21:39;;;;;;;44.47;24.60;;;;;;;-0.90;82.77;100100.59;5022010;28;20169;-83
2021/01/26 01:24:04;;;;;;;40.87;23.77;;;;;;;-0.91;82.61;100104.09;5021522;28;20173;-83
2021/01/26 01:26:29;;;;;;;42.40;22.53;;;;;;;-0.92;82.85;100102.38;5021595;28;20207;-84
2021/01/26 01:28:55;;;;;;;43.03;23.20;;;;;;;-0.92;83.07;100115.47;5019120;28;20200;-82
2021/01/26 01:31:20;;;;;;;36.20;20.67;;;;;;;-0.91;82.73;100107.56;5002761;28;20215;-83
2021/01/26 01:33:45;;;;;;;41.87;22.93;;;;;;;-0.90;82.96;100106.69;5020593;28;20642;-84
2021/01/26 01:36:10;;;;;;;36.57;22.53;;;;;;;-0.88;82.54;100117.13;5019057;28;20204;-84
2021/01/26 01:38:36;;;;;;;38.70;21.47;;;;;;;-0.89;82.88;100113.66;5004341;28;20180;-84
2021/01/26 01:41:01;;;;;;;42.70;23.50;;;;;;;-0.89;82.79;100118.91;5004015;28;20180;-84
2021/01/26 01:43:26;;;;;;;40.07;22.33;;;;;;;-0.90;82.60;100111.06;5020157;28;20181;-84
2021/01/26 01:45:52;;;;;;;46.97;24.97;;;;;;;-0.91;82.63;100104.09;5020457;28;20228;-85
2021/01/26 01:48:26;;;;;;;41.47;23.30;;;;;;;-0.91;82.62;100101.47;5035623;28;20189;-85
2021/01/26 01:51:08;;;;;;;40.60;24.20;;;;;;;-0.90;82.68;100106.69;5001979;28;20212;-85
2021/01/26 01:53:44;;;;;;;42.00;24.10;;;;;;;-0.89;82.46;100104.94;5000784;28;20184;-84
2021/01/26 01:56:27;;;;;;;43.63;24.73;;;;;;;-0.90;82.87;100114.53;5015697;28;20227;-84
2021/01/26 01:58:56;;;;;;;39.97;23.13;;;;;;;-0.90;83.04;100113.69;4998898;28;20191;-84
2021/01/26 02:01:25;;;;;;;46.93;24.77;;;;;;;-0.90;83.05;100111.06;5014977;28;20177;-85
2021/01/26 02:03:54;;;;;;;38.77;22.97;;;;;;;-0.89;82.78;100111.03;5015063;28;20549;-84
2021/01/26 02:06:23;;;;;;;39.33;23.07;;;;;;;-0.88;83.16;100114.50;5020408;28;20208;-84
2021/01/26 02:08:56;;;;;;;42.20;23.70;;;;;;;-0.89;82.70;100111.03;5019853;28;20255;-84
2021/01/26 02:11:22;;;;;;;40.03;23.23;;;;;;;-0.92;83.12;100125.94;5017898;28;20185;-84
2021/01/26 02:13:47;;;;;;;39.40;22.53;;;;;;;-0.93;83.23;100129.47;5000666;28;20187;-84
2021/01/26 02:16:24;;;;;;;42.07;25.60;;;;;;;-1.00;83.27;100121.72;5001437;28;20244;-84
2021/01/26 02:19:04;;;;;;;45.17;25.43;;;;;;;-1.03;83.00;100123.53;5018584;28;20207;-84
2021/01/26 02:22:02;;;;;;;48.23;25.13;;;;;;;-1.05;83.49;100127.91;5018509;28;20164;-84
2021/01/26 02:25:09;;;;;;;47.47;26.33;;;;;;;-1.09;83.94;100128.88;5000237;28;20176;-84
2021/01/26 02:27:55;;;;;;;44.63;26.20;;;;;;;-1.15;84.01;100132.41;5016486;28;20306;-83
2021/01/26 02:30:28;;;;;;;50.73;27.77;;;;;;;-1.18;83.99;100129.00;5017869;28;20165;-83
2021/01/26 02:33:20;;;;;;;47.90;25.83;;;;;;;-1.24;84.17;100129.97;5032453;28;20537;-84
2021/01/26 02:36:16;;;;;;;53.70;28.40;;;;;;;-1.29;84.25;100121.31;5016064;28;20287;-84
2021/01/26 02:39:22;;;;;;;56.67;31.50;;;;;;;-1.31;84.22;100130.94;4999578;28;20183;-84
2021/01/26 02:41:56;;;;;;;58.60;28.50;;;;;;;-1.34;84.43;100123.16;5016096;28;20188;-84
2021/01/26 02:44:28;;;;;;;53.53;28.37;;;;;;;-1.37;84.40;100129.31;5015920;28;20617;-84
2021/01/26 02:47:31;;;;;;;56.30;30.17;;;;;;;-1.35;84.65;100132.75;5016984;28;20177;-84
2021/01/26 02:50:15;;;;;;;58.87;30.67;;;;;;;-1.36;84.84;100130.16;5015486;28;20188;-84
2021/01/26 02:53:06;;;;;;;55.97;29.83;;;;;;;-1.38;84.75;100139.78;5032124;28;20165;-83
2021/01/26 02:55:59;;;;;;;57.53;30.00;;;;;;;-1.43;84.76;100134.63;5015471;28;20200;-84
2021/01/26 02:58:39;;;;;;;60.00;32.47;;;;;;;-1.44;85.05;100142.50;5032734;28;20192;-84
2021/01/26 03:01:05;;;;;;;69.00;33.20;;;;;;;-1.46;84.84;100144.28;4999549;28;20204;-83
2021/01/26 03:03:38;;;;;;;66.87;32.40;;;;;;;-1.48;84.97;100136.47;5016482;28;20268;-84
2021/01/26 03:06:07;;;;;;;67.07;34.50;;;;;;;-1.49;84.91;100133.84;5016130;28;20204;-84
2021/01/26 03:08:38;;;;;;;64.70;33.83;;;;;;;-1.51;85.09;100138.22;5015595;28;20200;-83
2021/01/26 03:11:14;;;;;;;72.13;35.10;;;;;;;-1.52;85.04;100142.59;5016288;28;20173;-83
2021/01/26 03:13:42;;;;;;;65.97;33.43;;;;;;;-1.53;85.13;100148.72;5016326;28;20743;-83
2021/01/26 03:16:11;;;;;;;60.00;31.77;;;;;;;-1.54;84.88;100151.38;5000026;28;20203;-83
2021/01/26 03:18:49;;;;;;;61.17;32.80;;;;;;;-1.54;85.06;100157.47;5016793;28;20465;-83
2021/01/26 03:21:17;;;;;;;68.53;33.73;;;;;;;-1.54;85.06;100156.59;5003300;28;20287;-83
2021/01/26 03:24:06;;;;;;;60.60;34.27;;;;;;;-1.54;84.88;100156.59;5019313;28;20235;-83
2021/01/26 03:26:33;;;;;;;61.53;32.90;;;;;;;-1.57;84.75;100157.50;5019072;28;20208;-83
2021/01/26 03:29:01;;;;;;;61.80;31.17;;;;;;;-1.58;85.03;100164.50;5019065;28;20208;-83
2021/01/26 03:31:32;;;;;;;66.40;36.00;;;;;;;-1.59;85.10;100165.38;5002586;28;20181;-82
2021/01/26 03:33:58;;;;;;;58.23;33.07;;;;;;;-1.58;84.81;100166.25;5019605;28;20177;-83
2021/01/26 03:36:23;;;;;;;65.40;33.33;;;;;;;-1.58;84.91;100161.00;5018802;28;20824;-82
2021/01/26 03:38:50;;;;;;;63.63;34.70;;;;;;;-1.59;84.94;100165.38;5004907;28;20200;-83
2021/01/26 03:41:16;;;;;;;64.00;36.80;;;;;;;-1.59;84.84;100175.84;5004604;28;20191;-83
2021/01/26 03:43:41;;;;;;;58.83;34.53;;;;;;;-1.58;84.71;100181.94;5005597;28;20179;-82
2021/01/26 03:46:29;;;;;;;63.17;34.73;;;;;;;-1.61;84.85;100169.78;5043936;28;20205;-82
2021/01/26 03:49:17;;;;;;;68.53;35.77;;;;;;;-1.62;84.94;100183.75;5039867;28;20191;-83
2021/01/26 03:51:54;;;;;;;64.63;33.97;;;;;;;-1.63;84.77;100189.88;5003103;28;20218;-83
2021/01/26 03:54:28;;;;;;;65.20;33.73;;;;;;;-1.64;84.83;100184.66;5019394;28;20231;-83
2021/01/26 03:57:21;;;;;;;69.87;34.17;;;;;;;-1.66;84.70;100176.81;5036136;28;20215;-83
2021/01/26 04:00:13;;;;;;;65.90;35.50;;;;;;;-1.69;84.66;100186.47;5019905;28;20180;-83
2021/01/26 04:02:55;;;;;;;63.17;34.67;;;;;;;-1.72;84.82;100183.91;5020648;28;20528;-83
2021/01/26 04:05:45;;;;;;;61.37;34.10;;;;;;;-1.75;85.25;100182.19;5020386;28;20203;-84
2021/01/26 04:08:15;;;;;;;54.83;31.93;;;;;;;-1.77;84.81;100177.88;5021331;28;20262;-84
2021/01/26 04:11:06;;;;;;;58.60;33.10;;;;;;;-1.78;84.73;100184.00;5003976;28;20188;-83
2021/01/26 04:14:05;;;;;;;60.50;32.80;;;;;;;-1.81;84.78;100184.03;4998752;28;20695;-84
2021/01/26 04:16:38;;;;;;;59.40;32.93;;;;;;;-1.85;84.95;100187.56;5020005;28;20207;-83
2021/01/26 04:19:05;;;;;;;47.07;26.07;;;;;;;-1.88;85.17;100185.81;5019697;28;20222;-83
2021/01/26 04:21:32;;;;;;;53.47;26.53;;;;;;;-1.92;85.04;100186.75;5036991;28;20180;-83
2021/01/26 04:23:58;;;;;;;65.57;34.77;;;;;;;-1.92;85.18;100189.38;5036647;28;20893;-83
2021/01/26 04:26:25;;;;;;;67.20;33.13;;;;;;;-1.92;85.56;100186.75;5002700;28;20208;-83
2021/01/26 04:28:50;;;;;;;56.70;31.43;;;;;;;-1.95;85.03;100181.56;5019713;28;20209;-83
2021/01/26 04:31:19;;;;;;;68.73;36.20;;;;;;;-1.95;85.15;100179.81;5018147;28;20623;-83
2021/01/26 04:33:45;;;;;;;68.70;37.67;;;;;;;-1.94;85.21;100178.06;5001744;28;20184;-83
2021/01/26 04:36:17;;;;;;;76.30;37.50;;;;;;;-1.96;85.23;100179.84;5017715;28;20234;-83
2021/01/26 04:38:42;;;;;;;71.93;36.70;;;;;;;-1.98;85.36;100179.84;5018417;28;20632;-82
2021/01/26 04:41:11;;;;;;;62.53;34.50;;;;;;;-2.01;85.19;100176.41;5034012;28;20234;-83
2021/01/26 04:44:03;;;;;;;73.10;37.87;;;;;;;-2.03;85.40;100184.28;5001246;28;20214;-83
2021/01/26 04:46:34;;;;;;;70.80;36.67;;;;;;;-2.02;85.38;100185.16;5017911;28;20189;-83
2021/01/26 04:49:09;;;;;;;79.03;37.43;;;;;;;-2.01;85.28;100186.88;5017748;28;20200;-82
2021/01/26 04:51:42;;;;;;;71.87;37.83;;;;;;;-1.99;85.21;100188.59;5019096;28;20449;-83
2021/01/26 04:54:23;;;;;;;72.50;37.67;;;;;;;-1.99;84.96;100199.06;5001245;28;20176;-83
2021/01/26 04:57:03;;;;;;;75.20;39.53;;;;;;;-1.98;85.11;100198.16;5034284;28;20398;-84
2021/01/26 04:59:58;;;;;;;71.07;36.97;;;;;;;-1.95;84.58;100199.88;5001036;28;20193;-83
2021/01/26 05:02:55;;;;;;;70.50;36.17;;;;;;;-1.96;84.30;100196.41;5017250;28;20275;-83
2021/01/26 05:05:22;;;;;;;69.80;37.37;;;;;;;-1.96;84.41;100198.16;5017308;28;20202;-83
2021/01/26 05:07:52;;;;;;;66.30;37.30;;;;;;;-1.96;84.38;100198.16;5034205;28;20481;-83
2021/01/26 05:10:23;;;;;;;62.90;35.00;;;;;;;-1.97;84.31;100196.41;5025323;28;20199;-82
2021/01/26 05:12:54;;;;;;;75.37;36.77;;;;;;;-2.00;84.48;100199.94;5005584;28;20179;-83
2021/01/26 05:15:21;;;;;;;72.43;37.80;;;;;;;-2.00;84.30;100202.53;5034462;28;20592;-83
2021/01/26 05:17:51;;;;;;;60.80;33.80;;;;;;;-2.00;84.19;100199.94;5018308;28;20416;-84
2021/01/26 05:20:23;;;;;;;69.13;36.00;;;;;;;-1.98;84.19;100208.63;5034148;28;20180;-83
2021/01/26 05:23:17;;;;;;;62.20;33.20;;;;;;;-1.97;84.17;100204.25;5001473;28;20272;-83
2021/01/26 05:25:42;;;;;;;57.43;33.70;;;;;;;-1.95;83.96;100213.81;4996251;28;20299;-83
2021/01/26 05:28:08;;;;;;;64.13;33.43;;;;;;;-1.93;84.74;100211.19;5001259;28;20724;-83
2021/01/26 05:30:34;;;;;;;55.57;31.27;;;;;;;-1.89;83.93;100208.50;5001045;28;20640;-83
2021/01/26 05:33:05;;;;;;;58.17;33.30;;;;;;;-1.85;83.63;100211.97;5018252;28;20182;-83
2021/01/26 05:35:31;;;;;;;57.37;33.30;;;;;;;-1.85;83.20;100219.81;5017261;28;20220;-82
2021/01/26 05:37:56;;;;;;;61.03;32.67;;;;;;;-1.85;83.43;100219.81;5034250;28;20183;-83
2021/01/26 05:40:34;;;;;;;49.27;29.97;;;;;;;-1.83;83.59;100217.19;5017579;28;20188;-83
2021/01/26 05:43:02;;;;;;;55.07;31.43;;;;;;;-1.82;83.46;100222.41;5001078;28;20177;-83
2021/01/26 05:45:31;;;;;;;58.37;33.17;;;;;;;-1.78;83.44;100228.47;5007157;28;20203;-83
2021/01/26 05:48:09;;;;;;;62.77;34.93;;;;;;;-1.78;82.94;100226.72;5011688;28;20204;-82
2021/01/26 05:50:36;;;;;;;56.63;32.90;;;;;;;-1.74;82.68;100225.78;5012089;28;20200;-82
2021/01/26 05:53:10;;;;;;;49.27;31.17;;;;;;;-1.75;82.93;100229.28;5010502;28;20184;-82
2021/01/26 05:55:36;;;;;;;50.00;31.97;;;;;;;-1.73;82.67;100226.66;5008570;28;20208;-82
2021/01/26 05:58:11;;;;;;;48.23;30.27;;;;;;;-1.70;82.45;100234.47;5025346;28;20185;-82
2021/01/26 06:00:37;;;;;;;56.57;31.43;;;;;;;-1.69;82.35;100237.06;5002544;28;20207;-81
2021/01/26 06:03:18;;;;;;;46.63;28.07;;;;;;;-1.68;82.38;100233.56;5014889;28;20205;-82
2021/01/26 06:06:07;;;;;;;45.87;29.67;;;;;;;-1.66;82.05;100237.00;4998477;28;20569;-81
2021/01/26 06:08:48;;;;;;;46.00;30.47;;;;;;;-1.64;82.10;100235.25;4999897;28;20661;-81
2021/01/26 06:11:15;;;;;;;51.83;28.43;;;;;;;-1.63;81.80;100236.97;4999242;28;20415;-82
2021/01/26 06:13:40;;;;;;;51.83;30.13;;;;;;;-1.62;81.61;100232.59;5015193;28;20180;-77
2021/01/26 06:16:09;;;;;;;44.90;28.67;;;;;;;-1.61;81.53;100240.44;5030865;28;20201;-78
2021/01/26 06:18:35;;;;;;;48.03;28.60;;;;;;;-1.62;81.77;100243.94;5014052;28;20647;-78
2021/01/26 06:21:11;;;;;;;47.23;29.43;;;;;;;-1.63;81.51;100239.59;5013931;28;20414;-78
2021/01/26 06:23:36;;;;;;;57.87;32.00;;;;;;;-1.63;81.77;100242.22;4997911;28;20180;-78
2021/01/26 06:26:07;;;;;;;50.53;30.47;;;;;;;-1.65;81.84;100240.50;5019077;28;20457;-78
2021/01/26 06:28:54;;;;;;;47.13;28.83;;;;;;;-1.64;82.15;100250.94;5002019;28;20616;-77
2021/01/26 06:31:31;;;;;;;49.90;31.03;;;;;;;-1.64;81.95;100248.31;5018079;28;20169;-77
2021/01/26 06:34:11;;;;;;;49.17;30.30;;;;;;;-1.61;81.90;100250.03;5009430;28;20212;-77
2021/01/26 06:36:58;;;;;;;49.83;31.00;;;;;;;-1.59;82.03;100250.88;5021827;28;20209;-68
2021/01/26 06:39:44;;;;;;;52.77;31.50;;;;;;;-1.57;81.63;100254.34;5028896;28;20172;-69
2021/01/26 06:42:22;;;;;;;54.23;32.37;;;;;;;-1.58;81.65;100252.63;5012250;28;20202;-68
2021/01/26 06:45:13;;;;;;;47.83;29.57;;;;;;;-1.55;81.70;100259.56;5028773;28;20203;-70
2021/01/26 06:47:56;;;;;;;49.27;28.33;;;;;;;-1.55;81.47;100255.19;5029024;28;20621;-69
2021/01/26 06:50:52;;;;;;;50.47;30.93;;;;;;;-1.54;81.37;100259.53;5028533;28;20195;-69
2021/01/26 06:53:44;;;;;;;50.50;31.07;;;;;;;-1.48;81.33;100256.00;5012200;28;20184;-69
2021/01/26 06:56:42;;;;;;;55.20;29.67;;;;;;;-1.47;80.94;100262.97;5014650;28;20204;-77
2021/01/26 06:59:27;;;;;;;48.03;28.97;;;;;;;-1.44;81.34;100260.31;5019235;28;20176;-76
2021/01/26 07:02:07;;;;;;;50.77;31.13;;;;;;;-1.43;81.32;100267.28;5000756;28;20181;-77
2021/01/26 07:05:08;;;;;;;46.97;29.87;;;;;;;-1.46;80.96;100268.19;5020005;28;20165;-77
2021/01/26 07:07:46;;;;;;;48.67;30.70;;;;;;;-1.49;81.19;100269.94;5007024;28;20227;-77
2021/01/26 07:10:25;;;;;;;51.50;30.67;;;;;;;-1.54;81.44;100267.38;5021034;28;20190;-77
2021/01/26 07:13:06;;;;;;;54.13;31.37;;;;;;;-1.54;81.42;100267.38;4998251;28;20176;-78
2021/01/26 07:15:43;;;;;;;52.10;30.63;;;;;;;-1.53;80.94;100273.47;5014457;28;20192;-77
2021/01/26 07:18:25;;;;;;;50.00;31.30;;;;;;;-1.58;81.55;100271.78;5016007;28;20168;-77
2021/01/26 07:21:31;;;;;;;55.67;30.80;;;;;;;-1.66;81.67;100273.66;5014512;28;20422;-77
2021/01/26 07:24:21;;;;;;;53.27;30.57;;;;;;;-1.66;81.85;100284.13;4997011;28;20632;-78
2021/01/26 07:27:07;;;;;;;65.70;34.07;;;;;;;-1.65;81.98;100287.59;5015134;28;20667;-77
2021/01/26 07:30:01;;;;;;;57.70;32.57;;;;;;;-1.70;81.61;100298.13;5016398;28;20178;-78
2021/01/26 07:32:36;;;;;;;58.10;32.90;;;;;;;-1.69;81.91;100284.16;5016139;28;20180;-77
2021/01/26 07:35:10;;;;;;;63.17;32.67;;;;;;;-1.68;81.73;100291.13;5013022;28;20276;-78
2021/01/26 07:37:55;;;;;;;60.07;34.53;;;;;;;-1.67;81.97;100294.59;5014904;28;20580;-77
2021/01/26 07:40:57;;;;;;;63.87;35.60;;;;;;;-1.63;82.05;100298.91;5030226;28;20219;-77
2021/01/26 07:43:27;;;;;;;56.47;32.83;;;;;;;-1.64;81.23;100313.75;5011228;28;20191;-78
2021/01/26 07:46:01;;;;;;;54.43;30.13;;;;;;;-1.64;81.49;100300.66;5013610;28;20234;-77
2021/01/26 07:48:43;;;;;;;50.33;28.50;;;;;;;-1.64;81.24;100299.78;4996935;28;20196;-78
2021/01/26 07:51:19;;;;;;;55.17;32.10;;;;;;;-1.65;81.11;100295.44;5030016;28;20889;-77
2021/01/26 07:53:53;;;;;;;62.37;33.87;;;;;;;-1.61;81.31;100295.38;4997595;28;20177;-78
2021/01/26 07:56:25;;;;;;;56.17;32.33;;;;;;;-1.58;81.18;100299.72;5013283;28;20197;-77
2021/01/26 07:58:51;;;;;;;56.43;32.70;;;;;;;-1.54;80.95;100300.53;5013120;28;20279;-78
2021/01/26 08:01:19;;;;;;;55.23;32.47;;;;;;;-1.51;80.76;100300.50;5030077;28;20708;-77
2021/01/26 08:03:45;;;;;;;55.20;32.33;;;;;;;-1.45;80.85;100306.56;4997110;28;20180;-77
2021/01/26 08:06:36;;;;;;;54.60;32.03;;;;;;;-1.39;80.11;100308.22;4999418;28;20192;-77
2021/01/26 08:09:03;;;;;;;50.00;30.90;;;;;;;-1.35;80.14;100321.25;5018375;28;20201;-77
2021/01/26 08:11:30;;;;;;;54.67;30.60;;;;;;;-1.38;80.22;100316.06;5016826;28;20180;-77
2021/01/26 08:14:04;;;;;;;52.27;31.87;;;;;;;-1.36;80.36;100314.28;5034129;28;20644;-77
2021/01/26 08:16:35;;;;;;;48.57;29.80;;;;;;;-1.39;80.10;100318.69;5035583;28;20196;-77
2021/01/26 08:19:03;;;;;;;56.53;32.67;;;;;;;-1.40;80.04;100311.72;5017994;28;20169;-78
2021/01/26 08:21:41;;;;;;;48.80;28.67;;;;;;;-1.37;79.71;100325.66;5017898;28;20272;-77
2021/01/26 08:24:34;;;;;;;53.63;30.47;;;;;;;-1.36;79.96;100321.28;5034061;28;20160;-78
2021/01/26 08:27:35;;;;;;;52.43;31.53;;;;;;;-1.39;79.91;100313.47;4996113;28;20216;-78
2021/01/26 08:30:06;;;;;;;53.80;28.77;;;;;;;-1.33;79.84;100321.22;4997093;28;20193;-78
2021/01/26 08:32:31;;;;;;;48.30;29.70;;;;;;;-1.29;80.15;100321.16;4997034;28;20259;-78
2021/01/26 08:35:20;;;;;;;51.13;31.23;;;;;;;-1.22;79.95;100321.09;5016291;28;20209;-78
2021/01/26 08:37:52;;;;;;;52.97;29.87;;;;;;;-1.21;79.50;100318.44;5017830;28;20224;-78
2021/01/26 08:40:41;;;;;;;56.93;29.80;;;;;;;-1.23;79.72;100319.34;5016683;28;20161;-78
2021/01/26 08:43:07;;;;;;;49.27;29.63;;;;;;;-1.19;79.67;100321.03;5016881;28;20428;-78
2021/01/26 08:45:33;;;;;;;48.90;28.23;;;;;;;-1.18;79.63;100322.78;5000866;28;20259;-78
2021/01/26 08:48:19;;;;;;;51.40;30.03;;;;;;;-1.10;79.27;100328.81;5017852;28;20681;-78
2021/01/26 08:50:50;;;;;;;44.40;26.73;;;;;;;-1.06;79.31;100333.13;5016543;28;20192;-78
2021/01/26 08:53:27;;;;;;;50.70;29.83;;;;;;;-1.04;79.39;100342.69;5018319;28;20177;-78
2021/01/26 08:56:02;;;;;;;46.33;27.50;;;;;;;-1.04;79.08;100340.06;5017000;28;20207;-78
2021/01/26 08:58:47;;;;;;;52.13;30.27;;;;;;;-1.01;79.31;100340.00;5033131;28;20184;-78
2021/01/26 09:01:24;;;;;;;54.83;30.03;;;;;;;-0.99;79.23;100347.84;5016375;28;20181;-78
2021/01/26 09:03:54;;;;;;;43.97;27.87;;;;;;;-0.92;78.79;100351.25;5017198;28;20184;-78
2021/01/26 09:06:37;;;;;;;47.67;28.97;;;;;;;-0.90;78.56;100355.56;5000454;28;20201;-78
2021/01/26 09:09:04;;;;;;;42.80;27.13;;;;;;;-0.87;78.79;100360.78;5017910;28;20254;-78
2021/01/26 09:11:33;;;;;;;48.47;29.37;;;;;;;-0.87;79.15;100349.44;5001114;28;20177;-78
2021/01/26 09:14:27;;;;;;;48.67;29.23;;;;;;;-0.83;78.84;100353.72;5001017;28;20181;-78
2021/01/26 09:17:03;;;;;;;50.73;30.27;;;;;;;-0.84;78.84;100352.88;5017160;28;20272;-78
2021/01/26 09:19:37;;;;;;;49.33;29.77;;;;;;;-0.81;78.55;100359.81;5017740;28;20256;-78
2021/01/26 09:22:07;;;;;;;46.23;29.60;;;;;;;-0.76;78.68;100358.84;5017421;28;20275;-78
2021/01/26 09:24:35;;;;;;;46.30;29.70;;;;;;;-0.69;78.25;100354.41;5017428;28;20633;-78
2021/01/26 09:27:18;;;;;;;49.43;31.57;;;;;;;-0.69;78.67;100357.91;5017803;28;20196;-78
2021/01/26 09:29:44;;;;;;;51.13;30.50;;;;;;;-0.70;78.37;100356.19;5000444;28;20188;-78
2021/01/26 09:32:09;;;;;;;50.67;31.03;;;;;;;-0.72;78.78;100354.47;5000505;28;20264;-78
2021/01/26 09:34:34;;;;;;;49.60;29.23;;;;;;;-0.67;78.69;100343.03;5034624;28;20582;-78
2021/01/26 09:37:09;;;;;;;56.20;30.10;;;;;;;-0.60;78.83;100350.78;5001075;28;20184;-79
2021/01/26 09:39:34;;;;;;;53.77;30.97;;;;;;;-0.58;78.65;100369.97;5000130;28;20191;-79
2021/01/26 09:42:16;;;;;;;51.03;29.80;;;;;;;-0.68;78.89;100377.13;5032793;28;20180;-78
2021/01/26 09:44:54;;;;;;;50.97;29.30;;;;;;;-0.66;78.71;100370.09;5001439;28;20268;-77
2021/01/26 09:47:21;;;;;;;49.47;29.07;;;;;;;-0.65;78.96;100377.94;5016687;28;20259;-78
2021/01/26 09:49:46;;;;;;;47.37;30.30;;;;;;;-0.54;78.58;100382.16;5018547;28;20192;-78
2021/01/26 09:52:16;;;;;;;52.23;30.83;;;;;;;-0.55;78.77;100383.03;5019233;28;20618;-78
2021/01/26 09:54:42;;;;;;;48.80;29.10;;;;;;;-0.51;78.75;100379.47;5018239;28;20239;-78
2021/01/26 09:57:10;;;;;;;49.03;30.93;;;;;;;-0.51;78.93;100384.72;5035174;28;20195;-78
2021/01/26 09:59:36;;;;;;;46.20;30.43;;;;;;;-0.49;78.89;100383.81;5001762;28;20637;-79
2021/01/26 10:02:06;;;;;;;53.97;31.63;;;;;;;-0.58;79.01;100396.19;5017692;28;20188;-78
2021/01/26 10:04:36;;;;;;;46.63;30.33;;;;;;;-0.59;79.26;100383.97;5034230;28;20181;-78
2021/01/26 10:07:06;;;;;;;47.40;29.30;;;;;;;-0.62;79.41;100392.75;5016780;28;20264;-78
2021/01/26 10:09:35;;;;;;;48.13;29.70;;;;;;;-0.60;80.14;100393.59;5001660;28;20203;-79
2021/01/26 10:12:33;;;;;;;51.23;32.63;;;;;;;-0.72;81.35;100397.28;5018582;28;20185;-78
2021/01/26 10:15:12;;;;;;;58.77;33.77;;;;;;;-0.78;82.23;100402.56;5017044;28;20197;-78
2021/01/26 10:17:52;;;;;;;51.30;30.03;;;;;;;-0.72;82.71;100399.03;5019944;28;20219;-78
2021/01/26 10:20:26;;;;;;;41.20;24.00;;;;;;;-0.66;83.14;100406.78;5020674;28;20161;-78
2021/01/26 10:23:02;;;;;;;53.40;31.17;;;;;;;-0.71;83.63;100404.25;5003562;28;20219;-79
2021/01/26 10:25:27;;;;;;;47.20;28.30;;;;;;;-0.69;83.93;100398.97;5005615;28;20223;-78
2021/01/26 10:27:52;;;;;;;40.97;23.97;;;;;;;-0.57;83.90;100401.41;5038416;28;20201;-78
2021/01/26 10:30:27;;;;;;;54.37;27.77;;;;;;;-0.45;83.39;100395.97;5037919;28;20519;-78
2021/01/26 10:32:52;;;;;;;49.90;31.20;;;;;;;-0.35;82.56;100410.72;5037031;28;20160;-78
2021/01/26 10:35:22;;;;;;;56.40;33.13;;;;;;;-0.23;82.21;100411.41;5017188;28;20250;-78
2021/01/26 10:37:47;;;;;;;38.43;24.07;;;;;;;0.04;82.45;100413.59;5018566;28;20176;-78
2021/01/26 10:40:21;;;;;;;41.93;25.80;;;;;;;0.26;79.95;100412.31;5034167;28;20642;-78
2021/01/26 10:43:00;;;;;;;43.80;26.97;;;;;;;0.16;79.95;100423.00;5014715;28;20262;-76
2021/01/26 10:45:48;;;;;;;39.67;24.77;;;;;;;0.10;79.75;100420.50;4998629;28;20719;-78
2021/01/26 10:48:22;;;;;;;36.77;22.60;;;;;;;0.10;80.22;100423.97;5014786;28;20204;-78
2021/01/26 10:50:49;;;;;;;43.93;27.10;;;;;;;0.15;80.25;100423.91;5016335;28;20188;-78
2021/01/26 10:53:38;;;;;;;42.63;27.73;;;;;;;0.14;80.30;100420.41;5014832;28;20178;-78
2021/01/26 10:56:04;;;;;;;43.13;27.23;;;;;;;0.14;80.39;100412.53;5032111;28;20196;-78
2021/01/26 10:58:29;;;;;;;35.90;22.53;;;;;;;0.14;81.01;100417.78;5015587;28;20549;-78
2021/01/26 11:00:55;;;;;;;39.93;27.33;;;;;;;0.11;80.07;100424.84;5015576;28;20184;-78
2021/01/26 11:03:20;;;;;;;46.27;28.07;;;;;;;-0.06;80.55;100422.47;5016458;28;20180;-78
2021/01/26 11:05:45;;;;;;;41.70;26.13;;;;;;;-0.10;81.52;100423.41;5016050;28;20201;-78
2021/01/26 11:08:11;;;;;;;45.50;28.23;;;;;;;-0.06;81.77;100425.97;5015521;28;20212;-77
2021/01/26 11:10:36;;;;;;;45.80;27.07;;;;;;;0.02;81.51;100428.50;5015791;28;20584;-78
2021/01/26 11:13:02;;;;;;;43.27;27.27;;;;;;;0.08;80.78;100441.50;5031073;28;20231;-78
2021/01/26 11:15:28;;;;;;;47.03;28.90;;;;;;;-0.06;81.62;100440.84;5015333;28;20216;-78
2021/01/26 11:17:53;;;;;;;45.30;28.73;;;;;;;-0.01;81.74;100436.38;5004522;28;20173;-78
2021/01/26 11:20:19;;;;;;;47.23;28.70;;;;;;;-0.04;81.15;100439.94;5031767;28;20173;-78
2021/01/26 11:22:44;;;;;;;42.17;26.93;;;;;;;-0.08;80.50;100445.25;5015691;28;20204;-78
2021/01/26 11:25:10;;;;;;;46.30;29.50;;;;;;;-0.14;81.02;100448.84;4999355;28;20554;-78
2021/01/26 11:27:35;;;;;;;49.63;31.13;;;;;;;-0.20;80.88;100438.44;5015303;28;20189;-78
2021/01/26 11:30:03;;;;;;;51.93;30.00;;;;;;;-0.24;81.03;100446.38;5018013;28;20177;-77
2021/01/26 11:32:29;;;;;;;51.87;30.07;;;;;;;-0.28;81.28;100442.94;4999132;28;20169;-78
2021/01/26 11:34:54;;;;;;;53.83;32.30;;;;;;;-0.22;81.01;100436.75;4998518;28;20200;-78
2021/01/26 11:37:19;;;;;;;56.77;32.87;;;;;;;-0.16;81.15;100431.41;5015435;28;20177;-78
2021/01/26 11:39:45;;;;;;;52.67;32.80;;;;;;;-0.17;81.41;100448.88;5031758;28;20203;-78